Time;durP1;ratioP1;P1;durP2;ratioP2;P2;SDS_P1;SDS_P2;PMS_P1;PMS_P2;Temp;Humidity;BMP_temperature;BMP_pressure;BME280_temperature;BME280_humidity;BME280_pressure;Samples;Min_cycle;Max_cycle;Signal;HPM_P1;HPM_P2
2023/01/06 00:01:15;;;;;;;14.73;8.07;;;;;;;8.46;100.00;101682.84;6129393;23;20005;-85
2023/01/06 00:03:41;;;;;;;13.05;7.75;;;;;;;8.48;100.00;101673.94;6153266;23;20054;-85
2023/01/06 00:06:10;;;;;;;12.15;6.93;;;;;;;8.50;100.00;101670.38;6152485;23;20056;-84
2023/01/06 00:08:36;;;;;;;10.85;6.68;;;;;;;8.52;100.00;101673.81;6151901;23;20015;-85
2023/01/06 00:11:11;;;;;;;9.52;6.53;;;;;;;8.50;100.00;101659.75;6163233;23;20016;-85
2023/01/06 00:13:36;;;;;;;11.98;6.18;;;;;;;8.54;100.00;101661.41;6163709;23;20320;-85
2023/01/06 00:16:04;;;;;;;8.88;6.15;;;;;;;8.56;100.00;101667.50;6157388;23;20008;-85
2023/01/06 00:18:30;;;;;;;11.90;6.05;;;;;;;8.57;100.00;101661.28;6147702;23;20016;-84
2023/01/06 00:20:58;;;;;;;8.65;6.07;;;;;;;8.59;100.00;101657.69;6147720;23;20005;-85
2023/01/06 00:23:23;;;;;;;9.90;4.90;;;;;;;8.58;100.00;101653.31;6146646;23;20007;-85
2023/01/06 00:25:50;;;;;;;9.15;5.70;;;;;;;8.54;100.00;101642.81;6121898;23;20136;-85
2023/01/06 00:28:15;;;;;;;9.48;5.22;;;;;;;8.54;100.00;101633.06;6147356;23;20009;-85
2023/01/06 00:30:40;;;;;;;9.02;5.00;;;;;;;8.56;100.00;101636.53;6120783;23;20336;-86
2023/01/06 00:33:06;;;;;;;7.40;4.57;;;;;;;8.53;100.00;101636.66;6146967;23;20048;-83
2023/01/06 00:35:31;;;;;;;8.57;4.72;;;;;;;8.58;100.00;101642.69;6145678;23;20005;-85
2023/01/06 00:37:56;;;;;;;8.93;4.00;;;;;;;8.61;100.00;101647.91;6146139;23;20447;-85
2023/01/06 00:40:21;;;;;;;6.60;3.90;;;;;;;8.62;100.00;101648.78;6119209;23;20013;-85
2023/01/06 00:42:47;;;;;;;11.50;4.88;;;;;;;8.58;100.00;101639.16;6145445;23;20016;-85
2023/01/06 00:45:12;;;;;;;4.90;3.72;;;;;;;8.60;100.00;101654.09;6144052;23;20013;-85
2023/01/06 00:47:37;;;;;;;7.15;3.85;;;;;;;8.57;100.00;101640.06;6146050;23;20554;-85
2023/01/06 00:50:03;;;;;;;6.72;3.90;;;;;;;8.59;100.00;101639.09;6148089;23;20511;-86
2023/01/06 00:52:28;;;;;;;8.00;4.10;;;;;;;8.59;100.00;101638.25;6144475;23;20009;-85
2023/01/06 00:54:53;;;;;;;7.78;3.90;;;;;;;8.58;100.00;101641.81;6146596;23;20016;-86
2023/01/06 00:57:19;;;;;;;6.43;3.40;;;;;;;8.61;100.00;101641.72;6146835;23;20017;-85
2023/01/06 00:59:44;;;;;;;8.93;3.95;;;;;;;8.57;100.00;101632.09;6148815;23;20044;-85
2023/01/06 01:02:09;;;;;;;6.18;3.20;;;;;;;8.60;100.00;101637.31;6148428;23;20008;-84
2023/01/06 01:04:35;;;;;;;9.50;3.63;;;;;;;8.57;100.00;101635.66;6147586;23;20052;-85
2023/01/06 01:07:00;;;;;;;6.25;3.40;;;;;;;8.59;100.00;101643.56;6146348;23;20006;-86
2023/01/06 01:09:28;;;;;;;6.78;3.05;;;;;;;8.59;100.00;101643.56;6145185;23;20001;-85
2023/01/06 01:12:10;;;;;;;6.60;3.40;;;;;;;8.52;100.00;101629.59;6144495;23;20021;-86
2023/01/06 01:14:40;;;;;;;5.93;3.33;;;;;;;8.58;100.00;101644.47;6144804;23;20005;-86
2023/01/06 01:17:06;;;;;;;8.77;3.80;;;;;;;8.58;100.00;101632.06;6145173;23;20055;-85
2023/01/06 01:19:32;;;;;;;5.82;2.88;;;;;;;8.57;100.00;101632.09;6145589;23;20044;-86
2023/01/06 01:21:57;;;;;;;3.95;2.50;;;;;;;8.60;100.00;101632.88;6118931;23;20340;-85
2023/01/06 01:24:23;;;;;;;6.53;3.00;;;;;;;8.58;100.00;101620.59;6119111;23;20478;-86
2023/01/06 01:26:48;;;;;;;5.63;2.55;;;;;;;8.60;100.00;101632.88;6144949;23;20001;-85
2023/01/06 01:29:15;;;;;;;5.43;2.70;;;;;;;8.60;100.00;101639.97;6146261;23;20012;-86
2023/01/06 01:31:41;;;;;;;7.47;3.03;;;;;;;8.60;100.00;101626.69;6144583;23;20714;-86
2023/01/06 01:34:07;;;;;;;6.03;3.13;;;;;;;8.58;100.00;101632.06;6145270;23;20008;-86
2023/01/06 01:36:32;;;;;;;5.82;2.60;;;;;;;8.48;100.00;101604.06;6145637;23;20001;-85
2023/01/06 01:38:58;;;;;;;6.15;2.45;;;;;;;8.57;100.00;101613.53;6146650;23;20037;-85
2023/01/06 01:41:25;;;;;;;4.47;2.72;;;;;;;8.58;100.00;101616.16;6144964;23;20037;-86
2023/01/06 01:44:00;;;;;;;6.25;2.55;;;;;;;8.58;100.00;101613.50;6145206;23;20194;-86
2023/01/06 01:46:34;;;;;;;5.43;2.60;;;;;;;8.59;100.00;101617.88;6143244;23;20006;-86
2023/01/06 01:49:05;;;;;;;8.63;3.08;;;;;;;8.60;100.00;101616.97;6145457;23;20337;-86
2023/01/06 01:51:39;;;;;;;8.68;2.70;;;;;;;8.59;100.00;101606.41;6142991;23;20064;-85
2023/01/06 01:54:12;;;;;;;4.57;2.45;;;;;;;8.57;100.00;101594.94;6144808;23;20009;-85
2023/01/06 01:56:43;;;;;;;3.78;2.45;;;;;;;8.57;100.00;101600.25;6144231;23;20610;-86
2023/01/06 01:59:16;;;;;;;5.18;2.60;;;;;;;8.58;100.00;101594.91;6145071;23;20645;-86
2023/01/06 02:01:41;;;;;;;4.10;2.72;;;;;;;8.56;100.00;101591.44;6142752;23;20005;-85
2023/01/06 02:04:07;;;;;;;7.18;2.92;;;;;;;8.57;100.00;101594.94;6144900;23;20009;-85
2023/01/06 02:06:33;;;;;;;4.68;2.97;;;;;;;8.58;100.00;101583.44;6143582;23;20001;-85
2023/01/06 02:08:58;;;;;;;8.90;3.17;;;;;;;8.56;100.00;101574.66;6144568;23;20027;-85
2023/01/06 02:11:25;;;;;;;6.55;3.00;;;;;;;8.54;100.00;101580.00;6117159;23;20024;-85
2023/01/06 02:14:00;;;;;;;5.40;2.55;;;;;;;8.53;100.00;101577.38;6143858;23;20080;-86
2023/01/06 02:16:39;;;;;;;7.63;3.20;;;;;;;8.50;100.00;101558.94;6144428;23;20034;-86
2023/01/06 02:19:29;;;;;;;5.47;3.00;;;;;;;8.51;100.00;101566.81;6119783;23;20005;-85
2023/01/06 02:22:13;;;;;;;7.60;3.28;;;;;;;8.55;100.00;101576.44;6145272;23;20006;-86
2023/01/06 02:25:23;;;;;;;5.80;2.65;;;;;;;8.54;100.00;101572.06;6121517;23;20013;-86
2023/01/06 02:28:16;;;;;;;4.22;2.97;;;;;;;8.57;100.00;101584.34;6148750;23;20334;-85
2023/01/06 02:31:21;;;;;;;3.97;2.47;;;;;;;8.56;100.00;101582.59;6145233;23;20016;-85
2023/01/06 02:33:53;;;;;;;4.13;2.28;;;;;;;8.59;100.00;101571.91;6120805;23;20388;-85
2023/01/06 02:36:49;;;;;;;5.13;2.63;;;;;;;8.58;100.00;101567.53;6146388;23;20009;-85
2023/01/06 02:39:21;;;;;;;4.50;2.60;;;;;;;8.60;100.00;101558.56;6120058;23;20009;-85
2023/01/06 02:41:57;;;;;;;3.10;2.38;;;;;;;8.62;100.00;101551.44;6145465;23;20073;-85
2023/01/06 02:44:35;;;;;;;3.53;2.30;;;;;;;8.63;100.00;101544.34;6145044;23;20006;-85
2023/01/06 02:47:06;;;;;;;3.90;1.95;;;;;;;8.67;100.00;101546.00;6120331;23;20013;-85
2023/01/06 02:49:45;;;;;;;4.18;2.40;;;;;;;8.66;100.00;101544.28;6168776;23;20000;-86
2023/01/06 02:52:30;;;;;;;3.95;2.10;;;;;;;8.72;100.00;101541.41;6173349;23;20013;-85
2023/01/06 02:55:12;;;;;;;5.97;2.50;;;;;;;8.66;100.00;101528.34;6175266;23;19994;-86
2023/01/06 02:57:49;;;;;;;2.90;2.05;;;;;;;8.59;100.00;101519.69;6171454;23;20075;-86
2023/01/06 03:00:29;;;;;;;4.38;2.58;;;;;;;8.61;100.00;101525.84;6156415;23;20013;-86
2023/01/06 03:02:58;;;;;;;6.03;2.30;;;;;;;8.59;100.00;101527.66;6145874;23;20012;-85
2023/01/06 03:05:25;;;;;;;4.53;2.47;;;;;;;8.61;100.00;101531.16;6146055;23;20457;-85
2023/01/06 03:07:52;;;;;;;4.88;2.08;;;;;;;8.58;100.00;101514.44;6145879;23;20017;-86
2023/01/06 03:10:21;;;;;;;4.97;2.03;;;;;;;8.56;100.00;101495.03;6145914;23;20061;-85
2023/01/06 03:13:01;;;;;;;4.70;2.05;;;;;;;8.69;100.00;101518.50;6119803;23;20036;-85
2023/01/06 03:15:26;;;;;;;5.00;2.13;;;;;;;8.67;100.00;101508.84;6151300;23;20044;-85
2023/01/06 03:17:52;;;;;;;5.90;1.95;;;;;;;8.71;100.00;101515.78;6147324;23;20005;-86
2023/01/06 03:20:18;;;;;;;4.55;2.40;;;;;;;8.73;100.00;101508.63;6147205;23;20108;-86
2023/01/06 03:22:44;;;;;;;4.90;1.83;;;;;;;8.76;100.00;101512.97;6146090;23;20089;-86
2023/01/06 03:25:10;;;;;;;4.68;2.10;;;;;;;8.78;100.00;101514.69;6149073;23;20001;-85
2023/01/06 03:27:35;;;;;;;4.50;2.15;;;;;;;8.75;100.00;101498.84;6145556;23;20001;-85
2023/01/06 03:30:05;;;;;;;3.63;2.08;;;;;;;8.79;100.00;101500.47;6146840;23;20179;-86
2023/01/06 03:32:41;;;;;;;6.85;1.80;;;;;;;8.80;100.00;101504.00;6145616;23;20176;-85
2023/01/06 03:35:42;;;;;;;4.32;2.03;;;;;;;8.84;100.00;101502.97;6146535;23;20149;-85
2023/01/06 03:38:48;;;;;;;4.25;2.22;;;;;;;8.85;100.00;101520.63;6130855;23;20013;-85
2023/01/06 03:44:38;;;;;;;4.78;2.22;;;;;;;8.93;100.00;101508.84;6145161;23;20080;-85
2023/01/06 03:47:21;;;;;;;4.15;1.90;;;;;;;8.94;100.00;101496.44;6148450;23;20019;-84
2023/01/06 03:50:02;;;;;;;3.10;1.92;;;;;;;8.89;100.00;101488.63;6146428;23;20006;-85
2023/01/06 03:52:32;;;;;;;6.10;2.10;;;;;;;8.92;100.00;101491.19;6145454;23;20033;-85
2023/01/06 03:55:13;;;;;;;7.55;2.20;;;;;;;8.93;100.00;101492.91;6146572;23;20009;-85
2023/01/06 03:57:45;;;;;;;7.03;2.13;;;;;;;8.90;100.00;101501.00;6151541;23;20080;-85
2023/01/06 04:00:21;;;;;;;4.35;2.10;;;;;;;8.87;100.00;101500.22;6152380;23;20450;-85
2023/01/06 04:02:47;;;;;;;4.68;2.22;;;;;;;8.89;100.00;101488.63;6160223;23;20021;-85
2023/01/06 04:05:19;;;;;;;4.68;2.40;;;;;;;8.88;100.00;101484.25;6160368;23;20021;-85
2023/01/06 04:07:45;;;;;;;4.15;1.90;;;;;;;8.90;100.00;101508.97;6150794;23;20041;-85
2023/01/06 04:10:13;;;;;;;3.30;2.25;;;;;;;8.90;100.00;101478.88;6146160;23;20006;-85
2023/01/06 04:12:38;;;;;;;5.55;2.35;;;;;;;8.91;100.00;101481.50;6118391;23;20005;-85
2023/01/06 04:15:11;;;;;;;5.07;2.60;;;;;;;8.90;100.00;101479.78;6145547;23;20061;-85
2023/01/06 04:17:38;;;;;;;4.23;2.60;;;;;;;8.87;100.00;101474.56;6143723;23;20033;-85
2023/01/06 04:20:05;;;;;;;2.80;1.98;;;;;;;8.91;100.00;101484.16;6145062;23;20347;-85
2023/01/06 04:22:30;;;;;;;3.78;2.40;;;;;;;8.86;100.00;101472.81;6145128;23;20009;-85
2023/01/06 04:24:56;;;;;;;4.75;2.08;;;;;;;8.85;100.00;101473.72;6145660;23;20012;-85
2023/01/06 04:27:21;;;;;;;3.95;2.35;;;;;;;8.82;100.00;101465.00;6146965;23;20032;-86
2023/01/06 04:29:46;;;;;;;5.35;2.25;;;;;;;8.76;100.00;101454.59;6148439;23;20052;-84
2023/01/06 04:32:12;;;;;;;5.78;2.50;;;;;;;8.80;100.00;101456.22;6145807;23;20415;-85
2023/01/06 04:34:37;;;;;;;4.85;2.33;;;;;;;8.81;100.00;101465.91;6145728;23;20001;-85
2023/01/06 04:37:03;;;;;;;5.82;2.20;;;;;;;8.83;100.00;101445.50;6147102;23;20047;-85
2023/01/06 04:39:28;;;;;;;4.38;2.10;;;;;;;8.85;100.00;101438.34;6144380;23;20091;-85
2023/01/06 04:41:54;;;;;;;2.97;2.22;;;;;;;8.90;100.00;101436.41;6144426;23;20439;-85
2023/01/06 04:44:19;;;;;;;4.47;2.20;;;;;;;8.85;100.00;101425.06;6144835;23;20012;-85
2023/01/06 04:46:45;;;;;;;4.05;1.70;;;;;;;8.86;100.00;101419.72;6144367;23;20001;-85
2023/01/06 04:49:11;;;;;;;3.53;1.90;;;;;;;8.89;100.00;101416.09;6146050;23;20029;-86
2023/01/06 04:51:36;;;;;;;5.72;1.88;;;;;;;8.94;100.00;101416.78;6144791;23;20052;-85
2023/01/06 04:54:01;;;;;;;2.90;1.70;;;;;;;8.96;100.00;101413.16;6119514;23;20390;-85
2023/01/06 04:56:27;;;;;;;3.28;1.60;;;;;;;8.94;100.00;101399.06;6143961;23;20700;-85
2023/01/06 04:58:54;;;;;;;2.85;1.70;;;;;;;8.87;100.00;101400.22;6117887;23;20448;-85
2023/01/06 05:01:19;;;;;;;4.18;1.77;;;;;;;8.95;100.00;101419.41;6143652;23;20079;-85
2023/01/06 05:03:45;;;;;;;2.50;1.58;;;;;;;8.93;100.00;101410.63;6144862;23;20006;-85
2023/01/06 05:06:11;;;;;;;4.13;1.65;;;;;;;8.92;100.00;101397.41;6145590;23;20520;-84
2023/01/06 05:08:38;;;;;;;2.42;1.50;;;;;;;8.90;100.00;101417.81;6118641;23;20016;-85
2023/01/06 05:11:09;;;;;;;2.88;1.90;;;;;;;8.84;100.00;101408.28;6144540;23;20016;-85
2023/01/06 05:13:35;;;;;;;2.65;1.70;;;;;;;8.89;100.00;101410.78;6144539;23;20013;-84
2023/01/06 05:16:05;;;;;;;2.92;1.40;;;;;;;8.94;100.00;101400.84;6145746;23;20378;-86
2023/01/06 05:18:31;;;;;;;3.30;1.90;;;;;;;8.90;100.00;101405.44;6144978;23;20785;-86
2023/01/06 05:20:56;;;;;;;3.38;1.80;;;;;;;8.82;100.00;101388.91;6144528;23;20006;-85
2023/01/06 05:23:21;;;;;;;3.65;1.45;;;;;;;8.82;100.00;101399.53;6147621;23;20056;-85
2023/01/06 05:25:50;;;;;;;2.40;1.60;;;;;;;8.87;100.00;101404.66;6126035;23;20021;-84
2023/01/06 05:28:16;;;;;;;2.42;1.70;;;;;;;8.83;100.00;101403.91;6147149;23;20028;-85
2023/01/06 05:30:41;;;;;;;3.28;1.73;;;;;;;8.88;100.00;101401.09;6145595;23;20006;-85
2023/01/06 05:33:07;;;;;;;2.97;1.67;;;;;;;8.77;100.00;101385.53;6146019;23;20001;-85
2023/01/06 05:35:32;;;;;;;3.35;1.75;;;;;;;8.82;100.00;101407.50;6118916;23;20017;-85
2023/01/06 05:37:57;;;;;;;2.75;1.40;;;;;;;8.87;100.00;101418.81;6146593;23;20028;-85
2023/01/06 05:40:23;;;;;;;2.22;1.63;;;;;;;8.85;100.00;101404.69;6145805;23;20045;-85
2023/01/06 05:42:52;;;;;;;5.00;1.90;;;;;;;8.88;100.00;101419.66;6145121;23;20018;-85
2023/01/06 05:45:18;;;;;;;2.97;1.70;;;;;;;8.87;100.00;101418.81;6146556;23;20052;-85
2023/01/06 05:47:43;;;;;;;3.83;2.00;;;;;;;8.91;100.00;101420.44;6146613;23;20359;-85
2023/01/06 05:50:08;;;;;;;3.25;1.80;;;;;;;8.87;100.00;101407.31;6144555;23;20080;-84
2023/01/06 05:52:34;;;;;;;3.08;2.10;;;;;;;8.88;100.00;101411.69;6145037;23;20010;-85
2023/01/06 05:54:59;;;;;;;5.85;2.00;;;;;;;8.91;100.00;101425.75;6149017;23;20005;-84
2023/01/06 05:57:24;;;;;;;3.45;2.17;;;;;;;8.86;100.00;101422.38;6146427;23;20006;-84
2023/01/06 05:59:50;;;;;;;2.75;2.00;;;;;;;8.86;100.00;101409.13;6146637;23;20006;-85
2023/01/06 06:02:15;;;;;;;3.05;1.98;;;;;;;8.90;100.00;101416.06;6145905;23;20005;-85
2023/01/06 06:04:40;;;;;;;4.57;2.22;;;;;;;8.89;100.00;101413.44;6146932;23;20079;-85
2023/01/06 06:07:06;;;;;;;4.40;1.90;;;;;;;8.90;100.00;101410.75;6147309;23;20379;-86
2023/01/06 06:09:31;;;;;;;4.88;2.20;;;;;;;8.93;100.00;101423.88;6118381;23;20009;-85
2023/01/06 06:11:56;;;;;;;3.60;1.88;;;;;;;8.85;100.00;101402.03;6146235;23;20080;-86
2023/01/06 06:14:21;;;;;;;4.82;2.30;;;;;;;8.93;100.00;101412.41;6146769;23;20012;-86
2023/01/06 06:16:47;;;;;;;2.67;2.20;;;;;;;8.90;100.00;101407.19;6146798;23;20031;-87
2023/01/06 06:19:12;;;;;;;2.97;2.00;;;;;;;8.94;100.00;101407.03;6146954;23;20013;-86
2023/01/06 06:21:38;;;;;;;3.75;2.20;;;;;;;8.95;100.00;101415.88;6145391;23;20013;-86
2023/01/06 06:24:04;;;;;;;4.10;1.90;;;;;;;8.94;100.00;101415.00;6147042;23;20009;-86
2023/01/06 06:26:30;;;;;;;1.95;1.70;;;;;;;8.98;100.00;101418.41;6146913;23;20028;-86
2023/01/06 06:28:55;;;;;;;2.90;1.70;;;;;;;8.99;100.00;101425.47;6120813;23;20001;-86
2023/01/06 06:31:28;;;;;;;2.85;1.90;;;;;;;8.95;100.00;101422.06;6148129;23;20005;-86
2023/01/06 06:33:56;;;;;;;3.10;1.80;;;;;;;8.96;100.00;101415.81;6147963;23;20065;-86
2023/01/06 06:36:22;;;;;;;3.50;1.70;;;;;;;9.01;100.00;101434.25;6145763;23;20080;-85
2023/01/06 06:38:49;;;;;;;4.03;1.75;;;;;;;9.01;100.00;101428.94;6146726;23;20536;-86
2023/01/06 06:41:15;;;;;;;3.70;2.10;;;;;;;9.02;100.00;101429.78;6144603;23;20041;-86
2023/01/06 06:43:41;;;;;;;2.20;1.98;;;;;;;8.93;100.00;101415.91;6146272;23;20005;-86
2023/01/06 06:46:07;;;;;;;2.08;1.80;;;;;;;8.93;100.00;101418.56;6145232;23;20374;-85
2023/01/06 06:48:32;;;;;;;3.95;2.00;;;;;;;8.97;100.00;101424.66;6146560;23;20565;-86
2023/01/06 06:51:03;;;;;;;3.47;1.92;;;;;;;8.92;100.00;101414.19;6144170;23;20016;-86
2023/01/06 06:53:29;;;;;;;4.22;2.30;;;;;;;8.95;100.00;101408.78;6145520;23;20077;-86
2023/01/06 06:55:56;;;;;;;3.53;2.00;;;;;;;8.94;100.00;101427.41;6148687;23;20372;-86
2023/01/06 06:58:22;;;;;;;4.28;2.40;;;;;;;8.89;100.00;101429.34;6145935;23;20448;-85
2023/01/06 07:00:47;;;;;;;3.60;2.17;;;;;;;8.86;100.00;101418.84;6116863;23;20101;-86
2023/01/06 07:03:13;;;;;;;4.15;2.45;;;;;;;8.79;100.00;101418.19;6146164;23;20013;-86
2023/01/06 07:05:40;;;;;;;3.72;2.03;;;;;;;8.81;100.00;101426.09;6145271;23;20001;-86
2023/01/06 07:08:05;;;;;;;2.60;2.00;;;;;;;8.83;100.00;101445.50;6146323;23;20008;-86
2023/01/06 07:10:30;;;;;;;3.35;1.95;;;;;;;8.85;100.00;101439.22;6144668;23;20009;-86
2023/01/06 07:12:56;;;;;;;4.15;2.03;;;;;;;8.79;100.00;101428.81;6145704;23;20013;-86
2023/01/06 07:15:21;;;;;;;3.92;2.10;;;;;;;8.81;100.00;101432.28;6145640;23;20009;-85
2023/01/06 07:17:46;;;;;;;3.80;2.30;;;;;;;8.86;100.00;101430.34;6144570;23;20001;-86
2023/01/06 07:20:11;;;;;;;2.95;2.13;;;;;;;8.85;100.00;101435.69;6144086;23;20044;-86
2023/01/06 07:22:38;;;;;;;4.63;2.22;;;;;;;8.84;100.00;101445.44;6144382;23;20005;-86
2023/01/06 07:25:05;;;;;;;2.55;2.35;;;;;;;8.84;100.00;101449.91;6145330;23;20010;-85
2023/01/06 07:27:30;;;;;;;4.47;2.80;;;;;;;8.86;100.00;101437.41;6144988;23;20088;-86
2023/01/06 07:29:56;;;;;;;3.17;2.00;;;;;;;8.84;100.00;101440.13;6144423;23;20016;-86
2023/01/06 07:32:21;;;;;;;3.53;2.40;;;;;;;8.78;100.00;101435.06;6144796;23;20089;-85
2023/01/06 07:34:46;;;;;;;4.28;2.40;;;;;;;8.78;100.00;101429.75;6143190;23;20328;-86
2023/01/06 07:37:12;;;;;;;5.55;2.67;;;;;;;8.70;100.00;101434.44;6146304;23;20005;-85
2023/01/06 07:39:37;;;;;;;3.33;2.40;;;;;;;8.70;100.00;101442.41;6143422;23;20006;-86
2023/01/06 07:42:02;;;;;;;4.03;2.67;;;;;;;8.61;100.00;101443.59;6148199;23;20491;-86
2023/01/06 07:44:27;;;;;;;4.72;2.80;;;;;;;8.56;100.00;101449.94;6119673;23;20063;-86
2023/01/06 07:46:53;;;;;;;2.85;2.50;;;;;;;8.51;100.00;101450.09;6118973;23;20385;-85
2023/01/06 07:49:18;;;;;;;3.33;2.58;;;;;;;8.45;100.00;101453.81;6143904;23;20088;-86
2023/01/06 07:51:44;;;;;;;3.85;2.53;;;;;;;8.45;100.00;101455.63;6146649;23;20010;-85
2023/01/06 07:54:09;;;;;;;3.80;2.70;;;;;;;8.44;100.00;101464.47;6164569;23;20005;-86
2023/01/06 07:56:34;;;;;;;4.53;2.42;;;;;;;8.42;100.00;101464.53;6164894;23;20009;-86
2023/01/06 07:58:59;;;;;;;2.63;2.42;;;;;;;8.48;100.00;101476.72;6150779;23;20025;-86
2023/01/06 08:01:25;;;;;;;3.58;2.50;;;;;;;8.48;100.00;101472.31;6151361;23;20077;-85
2023/01/06 08:03:50;;;;;;;4.20;2.70;;;;;;;8.39;100.00;101469.91;6148347;23;20014;-85
2023/01/06 08:06:15;;;;;;;3.70;2.60;;;;;;;8.44;100.00;101480.38;6145576;23;20021;-85
2023/01/06 08:08:41;;;;;;;3.72;2.58;;;;;;;8.48;100.00;101492.63;6146669;23;20412;-85
2023/01/06 08:11:08;;;;;;;3.17;2.70;;;;;;;8.43;100.00;101489.25;6147770;23;20064;-86
2023/01/06 08:13:35;;;;;;;5.38;2.78;;;;;;;8.44;100.00;101486.59;6120039;23;20009;-86
2023/01/06 08:16:08;;;;;;;3.10;2.80;;;;;;;8.41;100.00;101491.97;6146560;23;20005;-88
2023/01/06 08:18:34;;;;;;;4.43;2.75;;;;;;;8.39;100.00;101493.78;6145796;23;20459;-87
2023/01/06 08:21:06;;;;;;;3.92;3.53;;;;;;;8.38;100.00;101502.66;6146765;23;20093;-87
2023/01/06 08:23:32;;;;;;;4.30;2.88;;;;;;;8.32;100.00;101491.34;6147780;23;20682;-88
2023/01/06 08:26:16;;;;;;;3.60;3.30;;;;;;;8.38;100.00;101512.41;6146930;23;20092;-89
2023/01/06 08:28:43;;;;;;;3.40;2.90;;;;;;;8.35;100.00;101513.34;6142193;23;20423;-85
2023/01/06 08:31:11;;;;;;;3.83;3.40;;;;;;;8.31;100.00;101501.09;6118400;23;20305;-86
2023/01/06 08:33:37;;;;;;;4.15;3.75;;;;;;;8.38;100.00;101515.94;6146708;23;20002;-86
2023/01/06 08:36:04;;;;;;;3.90;3.42;;;;;;;8.38;100.00;101515.06;6147522;23;20006;-87
2023/01/06 08:38:31;;;;;;;3.85;3.45;;;;;;;8.40;100.00;101518.53;6144161;23;20005;-85
2023/01/06 08:40:58;;;;;;;4.30;3.10;;;;;;;8.35;100.00;101508.03;6144338;23;20017;-86
2023/01/06 08:43:24;;;;;;;3.50;3.20;;;;;;;8.41;100.00;101529.13;6143243;23;20092;-87
2023/01/06 08:45:50;;;;;;;4.57;3.20;;;;;;;8.43;100.00;101527.25;6144393;23;20072;-87
2023/01/06 08:48:15;;;;;;;3.38;2.90;;;;;;;8.43;100.00;101537.00;6142281;23;20243;-86
2023/01/06 08:50:41;;;;;;;4.72;3.53;;;;;;;8.43;100.00;101529.91;6141250;23;20017;-85
2023/01/06 08:53:08;;;;;;;4.05;3.30;;;;;;;8.45;100.00;101525.44;6144459;23;20005;-86
2023/01/06 08:55:36;;;;;;;5.18;2.85;;;;;;;8.50;100.00;101537.69;6142659;23;20098;-86
2023/01/06 08:58:01;;;;;;;5.85;3.17;;;;;;;8.45;100.00;101533.41;6141504;23;20023;-84
2023/01/06 09:00:27;;;;;;;4.07;3.45;;;;;;;8.47;100.00;101531.56;6141200;23;20475;-85
2023/01/06 09:02:52;;;;;;;3.47;3.17;;;;;;;8.58;100.00;101544.50;6141543;23;20029;-86
2023/01/06 09:05:17;;;;;;;3.53;3.33;;;;;;;8.62;100.00;101555.91;6142469;23;20037;-84
2023/01/06 09:07:43;;;;;;;3.70;3.40;;;;;;;8.64;100.00;101543.44;6139805;23;20072;-85
2023/01/06 09:10:08;;;;;;;3.40;3.10;;;;;;;8.67;100.00;101551.31;6140884;23;20080;-85
2023/01/06 09:12:33;;;;;;;3.78;3.30;;;;;;;8.72;100.00;101559.97;6141090;23;20031;-85
2023/01/06 09:14:59;;;;;;;3.20;3.00;;;;;;;8.78;100.00;101573.06;6142621;23;20005;-86
2023/01/06 09:17:24;;;;;;;3.40;3.10;;;;;;;8.82;100.00;101576.47;6141584;23;20009;-86
2023/01/06 09:19:49;;;;;;;4.45;4.07;;;;;;;8.82;100.00;101572.06;6141325;23;20508;-83
2023/01/06 09:22:15;;;;;;;6.40;5.10;;;;;;;8.88;100.00;101574.50;6116167;23;20009;-86
2023/01/06 09:24:40;;;;;;;4.03;3.72;;;;;;;8.93;100.00;101577.00;6115694;23;20301;-86
2023/01/06 09:27:05;;;;;;;4.05;3.70;;;;;;;9.01;100.00;101584.72;6144074;23;20009;-83
2023/01/06 09:29:31;;;;;;;3.90;3.60;;;;;;;9.05;100.00;101583.72;6141806;23;20080;-85
2023/01/06 09:31:56;;;;;;;5.22;3.85;;;;;;;9.11;100.00;101595.00;6141534;23;20068;-84
2023/01/06 09:34:22;;;;;;;3.75;3.35;;;;;;;9.11;100.00;101575.53;6115497;23;20012;-83
2023/01/06 09:36:47;;;;;;;4.35;3.47;;;;;;;9.34;100.00;101596.03;6142881;23;20002;-84
2023/01/06 09:39:13;;;;;;;4.10;3.70;;;;;;;9.28;100.00;101585.59;6143331;23;20013;-84
2023/01/06 09:41:47;;;;;;;4.72;3.80;;;;;;;9.40;100.00;101603.78;6014880;23;2932245;-85
2023/01/06 09:44:18;;;;;;;4.28;3.88;;;;;;;9.48;100.00;101597.28;6143412;23;20022;-87
2023/01/06 09:46:47;;;;;;;5.18;4.10;;;;;;;9.61;100.00;101615.47;6142536;23;20063;-85
2023/01/06 09:49:15;;;;;;;4.25;3.95;;;;;;;9.66;100.00;101613.53;6144255;23;20010;-88
2023/01/06 09:51:42;;;;;;;4.55;4.15;;;;;;;9.63;100.00;101597.69;6117208;23;20017;-91
2023/01/06 09:54:22;;;;;;;5.32;4.15;;;;;;;9.89;100.00;101616.25;6118676;23;20017;-87
2023/01/06 09:56:53;;;;;;;4.30;3.92;;;;;;;9.80;100.00;101605.94;6119051;23;20060;-90
2023/01/06 09:59:26;;;;;;;5.05;4.10;;;;;;;9.67;100.00;101609.94;6143162;23;20517;-87
2023/01/06 10:01:53;;;;;;;4.63;4.22;;;;;;;9.61;100.00;101624.31;6142844;23;20005;-91
2023/01/06 10:04:24;;;;;;;5.43;4.40;;;;;;;9.50;100.00;101607.00;6141115;23;20029;-92
2023/01/06 10:07:24;;;;;;;5.03;4.53;;;;;;;9.54;100.00;101627.25;6115512;23;20008;-85
2023/01/06 10:10:04;;;;;;;5.18;4.70;;;;;;;9.71;100.00;101624.88;6141830;23;20846;-86
2023/01/06 10:12:57;;;;;;;6.38;4.75;;;;;;;9.85;100.00;101627.91;6141439;23;20009;-87
2023/01/06 10:15:47;;;;;;;4.78;4.25;;;;;;;9.91;100.00;101619.72;6143519;23;20009;-90
2023/01/06 10:18:24;;;;;;;4.82;4.45;;;;;;;9.84;100.00;101623.50;6145599;23;20153;-86
2023/01/06 10:20:54;;;;;;;4.90;4.20;;;;;;;9.67;100.00;101616.13;6150008;23;20006;-88
2023/01/06 10:23:46;;;;;;;4.95;4.47;;;;;;;9.62;100.00;101623.41;6134575;23;20032;-86
2023/01/06 10:26:13;;;;;;;5.60;5.00;;;;;;;9.62;100.00;101627.84;6154555;23;20002;-87
2023/01/06 10:28:47;;;;;;;7.85;5.18;;;;;;;9.77;100.00;101611.34;6149440;23;20005;-90
2023/01/06 10:31:18;;;;;;;7.47;5.22;;;;;;;10.18;100.00;101616.97;6151515;23;20093;-89
2023/01/06 10:33:50;;;;;;;6.45;5.10;;;;;;;10.37;100.00;101619.88;6152941;23;20143;-86
2023/01/06 10:36:19;;;;;;;5.85;5.35;;;;;;;10.35;100.00;101622.56;6152223;23;20002;-89
2023/01/06 10:38:48;;;;;;;6.82;6.13;;;;;;;10.34;100.00;101623.50;6154791;23;20461;-91
2023/01/06 10:41:32;;;;;;;6.50;5.78;;;;;;;10.40;100.00;101609.94;6152614;23;20024;-88
2023/01/06 10:43:58;;;;;;;6.60;6.03;;;;;;;10.20;100.00;101610.69;6153012;23;19997;-89
2023/01/06 10:46:31;;;;;;;7.30;6.50;;;;;;;10.19;100.00;101613.38;6151451;23;20056;-91
2023/01/06 10:48:57;;;;;;;7.88;6.85;;;;;;;10.25;100.00;101615.88;6128600;23;20033;-94
2023/01/06 10:51:33;;;;;;;7.57;6.57;;;;;;;10.36;100.00;101611.00;6152255;23;20057;-85
2023/01/06 10:54:04;;;;;;;8.90;7.68;;;;;;;10.58;100.00;101613.72;6120959;23;20343;-85
2023/01/06 10:56:31;;;;;;;8.80;7.45;;;;;;;10.73;100.00;101606.91;6145309;23;20012;-86
2023/01/06 10:59:04;;;;;;;9.35;7.05;;;;;;;10.89;100.00;101585.88;6144699;23;20009;-90
2023/01/06 11:01:29;;;;;;;8.15;7.22;;;;;;;10.93;100.00;101607.00;6121296;23;20040;-85
2023/01/06 11:04:14;;;;;;;10.05;7.85;;;;;;;10.84;100.00;101611.84;6147437;23;20029;-84
2023/01/06 11:06:45;;;;;;;8.60;7.70;;;;;;;10.78;100.00;101618.25;6145209;23;20007;-84
2023/01/06 11:09:32;;;;;;;8.38;7.30;;;;;;;10.67;100.00;101618.69;6142361;23;20010;-84
2023/01/06 11:12:08;;;;;;;8.48;7.57;;;;;;;10.57;100.00;101608.44;6117793;23;20577;-85
2023/01/06 11:14:34;;;;;;;10.90;8.85;;;;;;;10.69;100.00;101613.28;6118352;23;20020;-89
2023/01/06 11:17:06;;;;;;;9.65;8.35;;;;;;;10.71;100.00;101609.66;6144713;23;20009;-83
2023/01/06 11:19:38;;;;;;;9.05;8.15;;;;;;;10.85;100.00;101624.22;6143177;23;20009;-84
2023/01/06 11:22:24;;;;;;;10.85;8.27;;;;;;;10.74;100.00;101613.97;6146461;23;20037;-86
2023/01/06 11:24:53;;;;;;;12.18;9.35;;;;;;;10.55;100.00;101612.97;6143976;23;20005;-85
2023/01/06 11:27:18;;;;;;;10.32;8.55;;;;;;;10.44;100.00;101614.22;6144164;23;20016;-84
2023/01/06 11:29:44;;;;;;;12.55;9.02;;;;;;;10.37;100.00;101610.09;6145706;23;20006;-83
2023/01/06 11:32:14;;;;;;;12.10;7.95;;;;;;;10.38;100.00;101616.28;6118000;23;20036;-84
2023/01/06 11:34:51;;;;;;;12.00;7.93;;;;;;;10.32;100.00;101613.81;6144802;23;20013;-89
2023/01/06 11:37:34;;;;;;;10.07;7.07;;;;;;;10.27;100.00;101607.81;6143918;23;20016;-86